This is the latest recevied weather packets stored in our database for station/object N2UGS-WX. If no packets are shown the sender has not sent any weather packets the latest 10 day(s).
| Time | Temp. | Humidity | Pressure | Rain* | Wind** | Luminosity | Snow |
|---|---|---|---|---|---|---|---|
| 1778027402 | 9.44° C | 96% | 1009.8 hPa | 3.81 mm | - | - | - |
| 1778026502 | 9.44° C | 96% | 1009.5 hPa | 3.3 mm | - | - | - |
| 1778025602 | 9.44° C | 96% | 1009.5 hPa | 2.79 mm | - | - | - |
| 1778024702 | 9.44° C | 96% | 1009.1 hPa | 2.29 mm | - | - | - |
| 1778023802 | 9.44° C | 96% | 1009.1 hPa | 1.78 mm | - | - | - |
| 1778022905 | 9.44° C | 96% | 1008.8 hPa | 2.29 mm | - | - | - |
| 1778022003 | 9.44° C | 95% | 1009.1 hPa | 2.03 mm | - | - | - |
| 1778021103 | 9.44° C | 95% | 1009.1 hPa | 2.54 mm | - | - | - |
| 1778020202 | 9.44° C | 94% | 1009.1 hPa | 2.29 mm | - | - | - |
| 1778019302 | 9.44° C | 94% | 1009.5 hPa | 3.81 mm | - | - | - |
| 1778018403 | 9.44° C | 93% | 1009.1 hPa | 4.06 mm | - | - | - |
| 1778017502 | 10° C | 93% | 1009.1 hPa | 3.81 mm | - | - | - |
| 1778016603 | 11.11° C | 94% | 1008.5 hPa | 3.05 mm | - | - | - |
| 1778015703 | 11.67° C | 93% | 1008.1 hPa | 1.52 mm | - | - | - |
| 1778014803 | 12.22° C | 92% | 1007.8 hPa | 0.25 mm | - | - | - |
| 1778014142 | 12.22° C | 90% | 1007.5 hPa | 0.25 mm | - | - | - |
| 1778013243 | 12.22° C | 87% | 1007.1 hPa | 0 mm | - | - | - |
| 1778012342 | 12.78° C | 83% | 1007.5 hPa | 0 mm | - | - | - |
| 1778011742 | 13.33° C | 83% | 1007.5 hPa | 0 mm | - | - | - |
| 1778010842 | 13.89° C | 78% | 1007.1 hPa | 0 mm | - | - | - |
| 1778010002 | 15° C | 74% | 1006.8 hPa | 0 mm | - | - | - |
| 1778009342 | 16.11° C | 71% | 1006.4 hPa | 0 mm | - | - | - |
| 1778008503 | 17.22° C | 66% | 1006.4 hPa | 0 mm | - | - | - |
| 1778007901 | 18.89° C | 63% | 1006.4 hPa | 0 mm | - | - | - |
| 1778007242 | 20° C | 60% | 1006.4 hPa | 0 mm | - | - | - |
* Rain latest hour (hover to see other rain measurements)
** Current wind speed in m/s (hover to see current wind gust speed)